sensor_id;sensor_type;location;lat;lon;timestamp;pressure;altitude;pressure_sealevel;temperature;humidity
77639;BME280;66802;52.574;14.398;2023-11-18T00:01:44;102140.56;;;3.96;93.41
77639;BME280;66802;52.574;14.398;2023-11-18T00:04:10;102142.22;;;3.99;92.60
77639;BME280;66802;52.574;14.398;2023-11-18T00:06:44;102149.31;;;4.00;91.60
77639;BME280;66802;52.574;14.398;2023-11-18T00:09:13;102137.25;;;3.91;91.14
77639;BME280;66802;52.574;14.398;2023-11-18T00:11:39;102142.97;;;3.84;91.54
77639;BME280;66802;52.574;14.398;2023-11-18T00:14:06;102159.00;;;3.84;92.00
77639;BME280;66802;52.574;14.398;2023-11-18T00:16:31;102155.53;;;3.82;91.13
77639;BME280;66802;52.574;14.398;2023-11-18T00:18:57;102150.34;;;3.79;91.96
77639;BME280;66802;52.574;14.398;2023-11-18T00:21:24;102156.66;;;3.78;92.16
77639;BME280;66802;52.574;14.398;2023-11-18T00:23:50;102162.22;;;3.73;92.89
77639;BME280;66802;52.574;14.398;2023-11-18T00:26:16;102160.56;;;3.71;93.04
77639;BME280;66802;52.574;14.398;2023-11-18T00:28:41;102161.56;;;3.68;93.28
77639;BME280;66802;52.574;14.398;2023-11-18T00:31:07;102168.16;;;3.61;94.11
77639;BME280;66802;52.574;14.398;2023-11-18T00:33:32;102168.22;;;3.59;94.27
77639;BME280;66802;52.574;14.398;2023-11-18T00:35:58;102175.53;;;3.56;94.51
77639;BME280;66802;52.574;14.398;2023-11-18T00:38:26;102176.53;;;3.53;94.90
77639;BME280;66802;52.574;14.398;2023-11-18T00:40:52;102185.47;;;3.52;95.30
77639;BME280;66802;52.574;14.398;2023-11-18T00:43:17;102185.56;;;3.51;95.16
77639;BME280;66802;52.574;14.398;2023-11-18T00:45:43;102199.03;;;3.48;96.17
77639;BME280;66802;52.574;14.398;2023-11-18T00:48:09;102199.97;;;3.47;95.42
77639;BME280;66802;52.574;14.398;2023-11-18T00:50:35;102209.94;;;3.43;95.67
77639;BME280;66802;52.574;14.398;2023-11-18T00:53:01;102222.13;;;3.49;96.39
77639;BME280;66802;52.574;14.398;2023-11-18T00:55:26;102219.38;;;3.50;96.80
77639;BME280;66802;52.574;14.398;2023-11-18T00:57:52;102222.00;;;3.52;96.34
77639;BME280;66802;52.574;14.398;2023-11-18T04:01:32;102321.56;;;4.46;100.00
77639;BME280;66802;52.574;14.398;2023-11-18T04:03:58;102323.53;;;4.43;100.00
77639;BME280;66802;52.574;14.398;2023-11-18T04:06:23;102323.63;;;4.41;99.99
77639;BME280;66802;52.574;14.398;2023-11-18T04:08:50;102313.53;;;4.46;100.00
77639;BME280;66802;52.574;14.398;2023-11-18T04:11:16;102310.94;;;4.45;99.64
77639;BME280;66802;52.574;14.398;2023-11-18T04:13:44;102312.38;;;4.52;100.00
77639;BME280;66802;52.574;14.398;2023-11-18T04:16:10;102317.34;;;4.59;99.56
77639;BME280;66802;52.574;14.398;2023-11-18T04:18:39;102325.44;;;4.58;98.84
77639;BME280;66802;52.574;14.398;2023-11-18T04:21:12;102319.69;;;4.48;99.53
77639;BME280;66802;52.574;14.398;2023-11-18T04:23:39;102323.06;;;4.52;99.75
77639;BME280;66802;52.574;14.398;2023-11-18T04:26:05;102325.75;;;4.52;99.40
77639;BME280;66802;52.574;14.398;2023-11-18T04:28:31;102321.75;;;4.60;99.40
77639;BME280;66802;52.574;14.398;2023-11-18T04:30:56;102330.22;;;4.51;99.25
77639;BME280;66802;52.574;14.398;2023-11-18T04:33:22;102325.75;;;4.52;99.66
77639;BME280;66802;52.574;14.398;2023-11-18T04:35:52;102322.06;;;4.54;99.77
77639;BME280;66802;52.574;14.398;2023-11-18T04:38:20;102325.56;;;4.55;100.00
77639;BME280;66802;52.574;14.398;2023-11-18T04:40:47;102335.19;;;4.59;99.72
77639;BME280;66802;52.574;14.398;2023-11-18T04:43:12;102334.38;;;4.57;99.78
77639;BME280;66802;52.574;14.398;2023-11-18T04:45:38;102342.28;;;4.60;99.84
77639;BME280;66802;52.574;14.398;2023-11-18T04:48:05;102336.28;;;4.55;99.66
77639;BME280;66802;52.574;14.398;2023-11-18T04:50:31;102340.38;;;4.62;99.24
77639;BME280;66802;52.574;14.398;2023-11-18T04:52:58;102340.00;;;4.69;99.07
77639;BME280;66802;52.574;14.398;2023-11-18T04:55:24;102344.72;;;4.64;99.18
77639;BME280;66802;52.574;14.398;2023-11-18T04:57:51;102345.41;;;4.68;98.90
77639;BME280;66802;52.574;14.398;2023-11-18T05:00:17;102356.97;;;4.68;99.12
77639;BME280;66802;52.574;14.398;2023-11-18T05:02:45;102358.19;;;4.63;99.19
77639;BME280;66802;52.574;14.398;2023-11-18T05:05:15;102358.25;;;4.61;99.59
77639;BME280;66802;52.574;14.398;2023-11-18T05:07:41;102361.41;;;4.69;98.96
77639;BME280;66802;52.574;14.398;2023-11-18T05:10:08;102363.53;;;4.63;98.95
77639;BME280;66802;52.574;14.398;2023-11-18T05:12:34;102363.97;;;4.54;99.51
77639;BME280;66802;52.574;14.398;2023-11-18T05:15:00;102364.38;;;4.63;98.93
77639;BME280;66802;52.574;14.398;2023-11-18T05:17:26;102368.00;;;4.62;99.31
77639;BME280;66802;52.574;14.398;2023-11-18T05:19:52;102372.78;;;4.56;99.08
77639;BME280;66802;52.574;14.398;2023-11-18T05:22:21;102373.28;;;4.64;99.26
77639;BME280;66802;52.574;14.398;2023-11-18T05:24:47;102376.56;;;4.69;98.98
77639;BME280;66802;52.574;14.398;2023-11-18T05:27:14;102379.63;;;4.61;98.81
77639;BME280;66802;52.574;14.398;2023-11-18T05:29:39;102384.19;;;4.59;98.55
77639;BME280;66802;52.574;14.398;2023-11-18T05:32:07;102382.78;;;4.52;99.12
77639;BME280;66802;52.574;14.398;2023-11-18T05:34:33;102380.97;;;4.53;99.63
77639;BME280;66802;52.574;14.398;2023-11-18T05:37:01;102387.06;;;4.55;99.35
77639;BME280;66802;52.574;14.398;2023-11-18T05:39:26;102384.06;;;4.62;98.96
77639;BME280;66802;52.574;14.398;2023-11-18T05:41:59;102383.03;;;4.65;98.44
77639;BME280;66802;52.574;14.398;2023-11-18T05:44:25;102385.06;;;4.60;98.11
77639;BME280;66802;52.574;14.398;2023-11-18T05:47:03;102376.91;;;4.63;98.22
77639;BME280;66802;52.574;14.398;2023-11-18T05:49:28;102381.38;;;4.62;98.36
77639;BME280;66802;52.574;14.398;2023-11-18T05:51:54;102378.03;;;4.57;98.56
77639;BME280;66802;52.574;14.398;2023-11-18T05:54:19;102376.38;;;4.55;98.71
77639;BME280;66802;52.574;14.398;2023-11-18T05:56:45;102375.53;;;4.54;98.62
77639;BME280;66802;52.574;14.398;2023-11-18T05:59:10;102384.56;;;4.52;99.22
77639;BME280;66802;52.574;14.398;2023-11-18T06:01:36;102380.97;;;4.53;99.36
77639;BME280;66802;52.574;14.398;2023-11-18T06:04:03;102388.41;;;4.46;99.63
77639;BME280;66802;52.574;14.398;2023-11-18T06:06:29;102373.50;;;4.59;99.35
77639;BME280;66802;52.574;14.398;2023-11-18T06:08:56;102371.81;;;4.57;98.91
77639;BME280;66802;52.574;14.398;2023-11-18T06:11:24;102367.66;;;4.51;99.61
77639;BME280;66802;52.574;14.398;2023-11-18T06:13:51;102365.34;;;4.44;99.78
77639;BME280;66802;52.574;14.398;2023-11-18T06:16:22;102380.69;;;4.40;99.71
77639;BME280;66802;52.574;14.398;2023-11-18T06:18:58;102374.41;;;4.41;99.57
77639;BME280;66802;52.574;14.398;2023-11-18T06:21:26;102375.53;;;4.54;98.21
77639;BME280;66802;52.574;14.398;2023-11-18T06:23:56;102379.38;;;4.49;98.11
77639;BME280;66802;52.574;14.398;2023-11-18T06:26:23;102388.31;;;4.48;97.98
77639;BME280;66802;52.574;14.398;2023-11-18T06:28:53;102382.19;;;4.46;97.81
77639;BME280;66802;52.574;14.398;2023-11-18T06:31:20;102388.31;;;4.48;98.16
77639;BME280;66802;52.574;14.398;2023-11-18T06:33:47;102390.13;;;4.47;97.61
77639;BME280;66802;52.574;14.398;2023-11-18T06:38:40;102388.81;;;4.56;98.25
77639;BME280;66802;52.574;14.398;2023-11-18T06:41:06;102391.81;;;4.50;98.25
77639;BME280;66802;52.574;14.398;2023-11-18T06:43:38;102397.56;;;4.59;98.49
77639;BME280;66802;52.574;14.398;2023-11-18T06:46:31;102401.78;;;4.46;99.02
77639;BME280;66802;52.574;14.398;2023-11-18T06:49:00;102401.41;;;4.54;99.27
77639;BME280;66802;52.574;14.398;2023-11-18T06:51:30;102405.50;;;4.61;98.85
77639;BME280;66802;52.574;14.398;2023-11-18T06:53:58;102403.13;;;4.55;99.40
77639;BME280;66802;52.574;14.398;2023-11-18T06:56:26;102409.66;;;4.49;99.35
77639;BME280;66802;52.574;14.398;2023-11-18T06:58:52;102415.28;;;4.62;99.54
77639;BME280;66802;52.574;14.398;2023-11-18T07:01:18;102413.53;;;4.61;99.13
77639;BME280;66802;52.574;14.398;2023-11-18T07:03:48;102419.44;;;4.67;99.41
77639;BME280;66802;52.574;14.398;2023-11-18T07:06:18;102419.63;;;4.64;99.31
77639;BME280;66802;52.574;14.398;2023-11-18T07:08:53;102418.75;;;4.64;98.95
77639;BME280;66802;52.574;14.398;2023-11-18T07:11:19;102422.13;;;4.67;99.38
77639;BME280;66802;52.574;14.398;2023-11-18T07:13:48;102425.72;;;4.66;98.95
77639;BME280;66802;52.574;14.398;2023-11-18T07:16:25;102432.53;;;4.73;98.71
77639;BME280;66802;52.574;14.398;2023-11-18T07:18:51;102431.34;;;4.79;98.66
77639;BME280;66802;52.574;14.398;2023-11-18T07:21:16;102438.38;;;4.82;98.32
77639;BME280;66802;52.574;14.398;2023-11-18T07:23:42;102433.75;;;4.85;97.69
77639;BME280;66802;52.574;14.398;2023-11-18T07:26:08;102435.03;;;4.76;97.59
77639;BME280;66802;52.574;14.398;2023-11-18T07:28:35;102442.19;;;4.76;98.08
77639;BME280;66802;52.574;14.398;2023-11-18T07:31:01;102444.16;;;4.72;98.26
77639;BME280;66802;52.574;14.398;2023-11-18T07:33:30;102450.66;;;4.67;98.82
77639;BME280;66802;52.574;14.398;2023-11-18T07:35:59;102447.22;;;4.65;99.17
77639;BME280;66802;52.574;14.398;2023-11-18T07:38:25;102451.00;;;4.78;99.09
77639;BME280;66802;52.574;14.398;2023-11-18T07:40:52;102457.03;;;4.83;98.52
77639;BME280;66802;52.574;14.398;2023-11-18T07:43:22;102457.88;;;4.84;98.99
77639;BME280;66802;52.574;14.398;2023-11-18T07:45:48;102457.88;;;4.84;98.62
77639;BME280;66802;52.574;14.398;2023-11-18T07:48:19;102466.41;;;4.92;98.58
77639;BME280;66802;52.574;14.398;2023-11-18T07:50:46;102464.28;;;4.98;98.11
77639;BME280;66802;52.574;14.398;2023-11-18T07:53:15;102473.16;;;5.18;96.85
77639;BME280;66802;52.574;14.398;2023-11-18T07:55:41;102474.09;;;5.17;96.99
77639;BME280;66802;52.574;14.398;2023-11-18T07:58:08;102464.88;;;5.22;96.60
77639;BME280;66802;52.574;14.398;2023-11-18T08:00:42;102460.38;;;5.23;97.06
77639;BME280;66802;52.574;14.398;2023-11-18T08:03:09;102474.88;;;5.19;97.43
77639;BME280;66802;52.574;14.398;2023-11-18T08:05:39;102472.34;;;5.16;97.11
77639;BME280;66802;52.574;14.398;2023-11-18T08:08:08;102477.63;;;5.17;96.61
77639;BME280;66802;52.574;14.398;2023-11-18T08:10:37;102480.38;;;5.16;96.54
77639;BME280;66802;52.574;14.398;2023-11-18T08:13:06;102476.09;;;5.11;96.57
77639;BME280;66802;52.574;14.398;2023-11-18T08:15:33;102486.97;;;5.08;96.86
77639;BME280;66802;52.574;14.398;2023-11-18T08:18:00;102488.56;;;5.12;97.14
77639;BME280;66802;52.574;14.398;2023-11-18T08:20:25;102488.47;;;5.14;96.96
77639;BME280;66802;52.574;14.398;2023-11-18T08:22:52;102497.22;;;5.18;96.09
77639;BME280;66802;52.574;14.398;2023-11-18T08:25:18;102500.94;;;5.15;96.12
77639;BME280;66802;52.574;14.398;2023-11-18T08:27:44;102501.47;;;5.22;95.74
77639;BME280;66802;52.574;14.398;2023-11-18T08:30:13;102493.75;;;5.16;96.20
77639;BME280;66802;52.574;14.398;2023-11-18T08:32:41;102495.66;;;5.13;96.31
77639;BME280;66802;52.574;14.398;2023-11-18T08:35:10;102500.34;;;5.08;96.59
77639;BME280;66802;52.574;14.398;2023-11-18T08:37:39;102504.00;;;5.25;96.43
77639;BME280;66802;52.574;14.398;2023-11-18T08:40:05;102497.72;;;5.26;96.25
77639;BME280;66802;52.574;14.398;2023-11-18T08:42:32;102504.72;;;5.28;96.18
77639;BME280;66802;52.574;14.398;2023-11-18T08:44:59;102498.19;;;5.34;96.66
77639;BME280;66802;52.574;14.398;2023-11-18T08:47:27;102495.34;;;5.37;96.20
77639;BME280;66802;52.574;14.398;2023-11-18T08:49:52;102505.28;;;5.35;95.69
77639;BME280;66802;52.574;14.398;2023-11-18T08:52:18;102505.81;;;5.41;95.45
77639;BME280;66802;52.574;14.398;2023-11-18T08:54:44;102510.22;;;5.42;94.91
77639;BME280;66802;52.574;14.398;2023-11-18T08:57:28;102511.91;;;5.45;95.03
77639;BME280;66802;52.574;14.398;2023-11-18T09:00:11;102522.69;;;5.43;95.22
77639;BME280;66802;52.574;14.398;2023-11-18T09:02:57;102523.47;;;5.45;94.95
77639;BME280;66802;52.574;14.398;2023-11-18T09:05:26;102522.69;;;5.43;95.38
77639;BME280;66802;52.574;14.398;2023-11-18T09:07:55;102523.47;;;5.45;95.67
77639;BME280;66802;52.574;14.398;2023-11-18T09:10:23;102526.16;;;5.45;94.62
77639;BME280;66802;52.574;14.398;2023-11-18T09:12:49;102524.88;;;5.53;95.06
77639;BME280;66802;52.574;14.398;2023-11-18T09:15:14;102531.44;;;5.47;95.53
77639;BME280;66802;52.574;14.398;2023-11-18T09:17:48;102517.66;;;5.55;95.63
77639;BME280;66802;52.574;14.398;2023-11-18T09:20:14;102520.41;;;5.53;95.25
77639;BME280;66802;52.574;14.398;2023-11-18T09:22:46;102529.88;;;5.60;94.53
77639;BME280;66802;52.574;14.398;2023-11-18T09:25:12;102527.56;;;5.53;94.55
77639;BME280;66802;52.574;14.398;2023-11-18T09:27:37;102534.50;;;5.57;94.13
77639;BME280;66802;52.574;14.398;2023-11-18T09:30:05;102542.94;;;5.49;94.45
77639;BME280;66802;52.574;14.398;2023-11-18T09:32:42;102535.31;;;5.59;94.49
77639;BME280;66802;52.574;14.398;2023-11-18T09:35:10;102539.41;;;5.66;93.90
77639;BME280;66802;52.574;14.398;2023-11-18T09:37:39;102536.66;;;5.67;92.94
77639;BME280;66802;52.574;14.398;2023-11-18T09:40:07;102547.59;;;5.63;93.22
77639;BME280;66802;52.574;14.398;2023-11-18T09:42:40;102543.41;;;5.57;93.12
77639;BME280;66802;52.574;14.398;2023-11-18T09:45:09;102554.78;;;5.62;92.63
77639;BME280;66802;52.574;14.398;2023-11-18T09:47:43;102553.13;;;5.60;93.20
77639;BME280;66802;52.574;14.398;2023-11-18T09:50:17;102544.22;;;5.59;93.28
77639;BME280;66802;52.574;14.398;2023-11-18T09:52:48;102552.66;;;5.69;93.27
77639;BME280;66802;52.574;14.398;2023-11-18T09:55:38;102553.25;;;5.74;92.03
77639;BME280;66802;52.574;14.398;2023-11-18T09:58:15;102540.13;;;5.69;91.95
77639;BME280;66802;52.574;14.398;2023-11-18T10:00:41;102549.56;;;5.59;91.84
77639;BME280;66802;52.574;14.398;2023-11-18T10:03:08;102553.66;;;5.66;92.35
77639;BME280;66802;52.574;14.398;2023-11-18T10:05:36;102550.59;;;5.74;92.12
77639;BME280;66802;52.574;14.398;2023-11-18T10:08:05;102555.88;;;5.75;91.81
77639;BME280;66802;52.574;14.398;2023-11-18T10:10:34;102565.19;;;5.68;91.47
77639;BME280;66802;52.574;14.398;2023-11-18T10:13:04;102575.41;;;5.77;91.68
77639;BME280;66802;52.574;14.398;2023-11-18T10:15:47;102562.03;;;5.77;91.74
77639;BME280;66802;52.574;14.398;2023-11-18T10:18:18;102551.16;;;5.80;90.90
77639;BME280;66802;52.574;14.398;2023-11-18T10:20:50;102556.13;;;5.71;91.25
77639;BME280;66802;52.574;14.398;2023-11-18T10:23:22;102559.81;;;5.68;91.51
77639;BME280;66802;52.574;14.398;2023-11-18T10:25:56;102555.53;;;5.64;92.36
77639;BME280;66802;52.574;14.398;2023-11-18T10:28:30;102549.09;;;5.68;92.10
77639;BME280;66802;52.574;14.398;2023-11-18T10:31:03;102547.03;;;5.73;92.16
77639;BME280;66802;52.574;14.398;2023-11-18T10:33:37;102551.16;;;5.80;91.71
77639;BME280;66802;52.574;14.398;2023-11-18T10:36:04;102554.56;;;5.84;91.05
77639;BME280;66802;52.574;14.398;2023-11-18T10:38:33;102556.44;;;5.82;91.17
77639;BME280;66802;52.574;14.398;2023-11-18T10:41:04;102553.91;;;5.79;92.07
77639;BME280;66802;52.574;14.398;2023-11-18T10:43:31;102553.69;;;5.83;92.48
77639;BME280;66802;52.574;14.398;2023-11-18T10:46:14;102555.38;;;5.84;92.91
77639;BME280;66802;52.574;14.398;2023-11-18T10:48:47;102556.84;;;5.92;93.03
77639;BME280;66802;52.574;14.398;2023-11-18T10:51:22;102559.63;;;5.90;92.99
77639;BME280;66802;52.574;14.398;2023-11-18T10:53:53;102553.38;;;5.90;91.81
77639;BME280;66802;52.574;14.398;2023-11-18T10:56:22;102554.09;;;5.93;91.77
77639;BME280;66802;52.574;14.398;2023-11-18T10:59:12;102552.75;;;6.02;90.90
77639;BME280;66802;52.574;14.398;2023-11-18T11:01:43;102552.66;;;6.03;91.12
77639;BME280;66802;52.574;14.398;2023-11-18T11:04:12;102552.25;;;6.11;90.31
77639;BME280;66802;52.574;14.398;2023-11-18T11:06:45;102553.84;;;6.15;89.61
77639;BME280;66802;52.574;14.398;2023-11-18T11:09:23;102554.53;;;6.18;89.71
77639;BME280;66802;52.574;14.398;2023-11-18T11:12:10;102556.34;;;6.18;89.96
77639;BME280;66802;52.574;14.398;2023-11-18T11:14:49;102555.00;;;6.27;89.38
77639;BME280;66802;52.574;14.398;2023-11-18T11:17:20;102556.97;;;6.23;88.56
77639;BME280;66802;52.574;14.398;2023-11-18T11:20:04;102551.84;;;6.18;88.87
77639;BME280;66802;52.574;14.398;2023-11-18T11:22:58;102544.66;;;6.19;88.98
77639;BME280;66802;52.574;14.398;2023-11-18T11:25:42;102544.50;;;6.22;87.89
77639;BME280;66802;52.574;14.398;2023-11-18T11:28:19;102546.09;;;6.26;88.63
77639;BME280;66802;52.574;14.398;2023-11-18T11:33:43;102547.91;;;6.26;88.28
77639;BME280;66802;52.574;14.398;2023-11-18T11:36:19;102552.47;;;6.23;88.00
77639;BME280;66802;52.574;14.398;2023-11-18T11:38:51;102547.63;;;6.14;87.96
77639;BME280;66802;52.574;14.398;2023-11-18T11:41:17;102555.56;;;6.16;88.54
77639;BME280;66802;52.574;14.398;2023-11-18T11:43:52;102554.00;;;6.12;88.30
77639;BME280;66802;52.574;14.398;2023-11-18T11:46:22;102562.03;;;6.12;88.83
77639;BME280;66802;52.574;14.398;2023-11-18T11:48:52;102561.03;;;6.14;89.55
77639;BME280;66802;52.574;14.398;2023-11-18T11:51:47;102550.22;;;6.16;89.29
77639;BME280;66802;52.574;14.398;2023-11-18T11:54:26;102547.63;;;6.14;89.12
77639;BME280;66802;52.574;14.398;2023-11-18T11:56:56;102541.75;;;6.23;89.52
77639;BME280;66802;52.574;14.398;2023-11-18T12:02:10;102545.53;;;6.19;89.31
77639;BME280;66802;52.574;14.398;2023-11-18T12:04:37;102545.16;;;6.27;87.99
77639;BME280;66802;52.574;14.398;2023-11-18T12:07:08;102538.81;;;6.28;86.52
77639;BME280;66802;52.574;14.398;2023-11-18T12:09:36;102536.91;;;6.30;86.90
77639;BME280;66802;52.574;14.398;2023-11-18T12:12:17;102527.13;;;6.29;86.92
77639;BME280;66802;52.574;14.398;2023-11-18T12:17:18;102514.78;;;6.27;86.52
77639;BME280;66802;52.574;14.398;2023-11-18T12:19:50;102519.75;;;6.17;87.16
77639;BME280;66802;52.574;14.398;2023-11-18T12:22:22;102506.09;;;6.21;87.53
77639;BME280;66802;52.574;14.398;2023-11-18T12:35:24;102501.31;;;6.11;88.10
77639;BME280;66802;52.574;14.398;2023-11-18T12:43:16;102505.88;;;6.09;88.51
77639;BME280;66802;52.574;14.398;2023-11-18T12:48:43;102496.19;;;6.06;88.39
77639;BME280;66802;52.574;14.398;2023-11-18T12:51:10;102501.75;;;6.03;88.11
77639;BME280;66802;52.574;14.398;2023-11-18T12:53:47;102499.06;;;6.03;88.30
77639;BME280;66802;52.574;14.398;2023-11-18T12:56:16;102499.13;;;6.02;88.18
77639;BME280;66802;52.574;14.398;2023-11-18T12:58:48;102500.09;;;6.01;88.49
77639;BME280;66802;52.574;14.398;2023-11-18T13:01:14;102490.31;;;6.00;89.09
77639;BME280;66802;52.574;14.398;2023-11-18T13:03:41;102480.38;;;6.02;88.72
77639;BME280;66802;52.574;14.398;2023-11-18T13:06:11;102476.91;;;6.00;88.63
77639;BME280;66802;52.574;14.398;2023-11-18T13:08:43;102477.63;;;6.03;88.84
77639;BME280;66802;52.574;14.398;2023-11-18T13:11:08;102487.38;;;6.04;88.74
77639;BME280;66802;52.574;14.398;2023-11-18T13:13:42;102480.53;;;5.99;88.47
77639;BME280;66802;52.574;14.398;2023-11-18T13:16:08;102484.94;;;6.00;89.07
77639;BME280;66802;52.574;14.398;2023-11-18T13:18:47;102490.16;;;6.03;88.80
77639;BME280;66802;52.574;14.398;2023-11-18T13:21:19;102475.00;;;6.02;88.52
77639;BME280;66802;52.574;14.398;2023-11-18T13:23:47;102473.03;;;6.05;88.73
77639;BME280;66802;52.574;14.398;2023-11-18T13:26:14;102475.59;;;6.07;88.52
77639;BME280;66802;52.574;14.398;2023-11-18T13:28:40;102482.19;;;6.01;88.41
77639;BME280;66802;52.574;14.398;2023-11-18T13:31:12;102493.94;;;5.99;88.04
77639;BME280;66802;52.574;14.398;2023-11-18T13:33:47;102477.94;;;5.97;88.62
77639;BME280;66802;52.574;14.398;2023-11-18T13:36:14;102493.94;;;5.99;88.62
77639;BME280;66802;52.574;14.398;2023-11-18T13:38:41;102495.66;;;6.00;88.81
77639;BME280;66802;52.574;14.398;2023-11-18T13:41:07;102495.75;;;5.98;88.67
77639;BME280;66802;52.574;14.398;2023-11-18T13:43:45;102487.03;;;5.95;88.86
77639;BME280;66802;52.574;14.398;2023-11-18T13:46:18;102484.50;;;5.92;89.04
77639;BME280;66802;52.574;14.398;2023-11-18T13:48:47;102478.34;;;5.90;89.19
77639;BME280;66802;52.574;14.398;2023-11-18T13:51:15;102484.56;;;5.90;89.55
77639;BME280;66802;52.574;14.398;2023-11-18T13:53:42;102479.22;;;5.90;89.44
77639;BME280;66802;52.574;14.398;2023-11-18T13:56:12;102486.31;;;5.91;89.62
77639;BME280;66802;52.574;14.398;2023-11-18T13:58:39;102494.00;;;5.97;89.61
77639;BME280;66802;52.574;14.398;2023-11-18T14:01:05;102493.78;;;6.02;89.58
77639;BME280;66802;52.574;14.398;2023-11-18T14:03:34;102489.19;;;6.04;89.69
77639;BME280;66802;52.574;14.398;2023-11-18T14:05:59;102504.00;;;6.11;90.00
77639;BME280;66802;52.574;14.398;2023-11-18T14:08:28;102496.59;;;6.16;89.69
77639;BME280;66802;52.574;14.398;2023-11-18T14:10:55;102497.63;;;6.13;88.82
77639;BME280;66802;52.574;14.398;2023-11-18T14:13:21;102504.88;;;6.11;88.29
77639;BME280;66802;52.574;14.398;2023-11-18T14:15:48;102508.03;;;6.02;89.05
77639;BME280;66802;52.574;14.398;2023-11-18T14:18:14;102509.28;;;5.95;89.76
77639;BME280;66802;52.574;14.398;2023-11-18T14:20:40;102506.72;;;5.94;89.65
77639;BME280;66802;52.574;14.398;2023-11-18T14:23:06;102515.88;;;5.90;89.68
77639;BME280;66802;52.574;14.398;2023-11-18T14:25:32;102514.88;;;5.73;89.73
77639;BME280;66802;52.574;14.398;2023-11-18T14:27:59;102509.25;;;5.62;89.77
77639;BME280;66802;52.574;14.398;2023-11-18T14:30:25;102503.09;;;5.60;90.15
77639;BME280;66802;52.574;14.398;2023-11-18T14:32:54;102498.09;;;5.53;90.02
77639;BME280;66802;52.574;14.398;2023-11-18T14:35:20;102498.03;;;5.54;90.33
77639;BME280;66802;52.574;14.398;2023-11-18T14:37:46;102492.22;;;5.46;90.43
77639;BME280;66802;52.574;14.398;2023-11-18T14:40:12;102496.16;;;5.39;90.85
77639;BME280;66802;52.574;14.398;2023-11-18T14:42:47;102497.38;;;5.32;91.78
77639;BME280;66802;52.574;14.398;2023-11-18T14:45:17;102499.44;;;5.27;90.05
77639;BME280;66802;52.574;14.398;2023-11-18T14:47:43;102492.44;;;5.24;90.74
77639;BME280;66802;52.574;14.398;2023-11-18T14:50:22;102492.50;;;5.23;90.63
77639;BME280;66802;52.574;14.398;2023-11-18T14:52:52;102496.03;;;5.06;92.53
77639;BME280;66802;52.574;14.398;2023-11-18T14:55:29;102482.66;;;5.06;92.68
77639;BME280;66802;52.574;14.398;2023-11-18T14:57:55;102484.81;;;4.98;92.96
77639;BME280;66802;52.574;14.398;2023-11-18T15:00:24;102479.78;;;4.92;93.02
77639;BME280;66802;52.574;14.398;2023-11-18T15:02:54;102485.66;;;4.81;93.45
77639;BME280;66802;52.574;14.398;2023-11-18T15:05:22;102475.41;;;4.72;93.38
77639;BME280;66802;52.574;14.398;2023-11-18T15:07:53;102478.22;;;4.69;93.89
77639;BME280;66802;52.574;14.398;2023-11-18T15:10:26;102460.91;;;4.76;93.20
77639;BME280;66802;52.574;14.398;2023-11-18T15:12:55;102457.06;;;4.64;93.86
77639;BME280;66802;52.574;14.398;2023-11-18T15:15:28;102450.97;;;4.61;94.33
77639;BME280;66802;52.574;14.398;2023-11-18T15:17:59;102457.06;;;4.64;94.08
77639;BME280;66802;52.574;14.398;2023-11-18T15:20:25;102450.25;;;4.57;93.84
77639;BME280;66802;52.574;14.398;2023-11-18T15:22:52;102435.88;;;4.60;94.43
77639;BME280;66802;52.574;14.398;2023-11-18T15:25:17;102435.06;;;4.58;94.11
77639;BME280;66802;52.574;14.398;2023-11-18T15:27:44;102434.94;;;4.61;93.83
77639;BME280;66802;52.574;14.398;2023-11-18T15:30:16;102431.25;;;4.63;93.99
77639;BME280;66802;52.574;14.398;2023-11-18T15:32:44;102433.19;;;4.60;93.85
77639;BME280;66802;52.574;14.398;2023-11-18T15:35:11;102423.69;;;4.54;93.90
77639;BME280;66802;52.574;14.398;2023-11-18T15:37:39;102442.16;;;4.59;93.36
77639;BME280;66802;52.574;14.398;2023-11-18T15:40:10;102443.22;;;4.55;93.13
77639;BME280;66802;52.574;14.398;2023-11-18T15:42:42;102439.78;;;4.53;92.71
77639;BME280;66802;52.574;14.398;2023-11-18T15:45:13;102442.03;;;4.43;92.53
77639;BME280;66802;52.574;14.398;2023-11-18T15:47:40;102446.66;;;4.39;92.73
77639;BME280;66802;52.574;14.398;2023-11-18T15:50:09;102447.28;;;4.45;92.01
77639;BME280;66802;52.574;14.398;2023-11-18T15:52:38;102449.41;;;4.38;92.10
77639;BME280;66802;52.574;14.398;2023-11-18T15:55:05;102452.44;;;4.30;92.15
77639;BME280;66802;52.574;14.398;2023-11-18T15:57:38;102457.94;;;4.27;92.38
77639;BME280;66802;52.574;14.398;2023-11-18T16:00:08;102447.38;;;4.24;92.04
77639;BME280;66802;52.574;14.398;2023-11-18T16:02:42;102444.19;;;4.16;92.31
77639;BME280;66802;52.574;14.398;2023-11-18T16:05:14;102432.78;;;4.13;92.38
77639;BME280;66802;52.574;14.398;2023-11-18T16:07:45;102440.84;;;4.11;91.95
77639;BME280;66802;52.574;14.398;2023-11-18T16:10:12;102434.94;;;4.04;92.20
77639;BME280;66802;52.574;14.398;2023-11-18T16:15:27;102426.19;;;4.01;92.42
77639;BME280;66802;52.574;14.398;2023-11-18T16:17:54;102424.75;;;3.94;92.21
77639;BME280;66802;52.574;14.398;2023-11-18T16:20:25;102425.03;;;3.88;92.80
77639;BME280;66802;52.574;14.398;2023-11-18T16:22:52;102433.06;;;3.88;92.76
77639;BME280;66802;52.574;14.398;2023-11-18T16:25:20;102439.25;;;3.88;92.63
77639;BME280;66802;52.574;14.398;2023-11-18T16:27:47;102437.66;;;3.84;93.08
77639;BME280;66802;52.574;14.398;2023-11-18T16:30:14;102425.66;;;3.74;93.43
77639;BME280;66802;52.574;14.398;2023-11-18T16:32:40;102423.06;;;3.73;93.25
77639;BME280;66802;52.574;14.398;2023-11-18T16:35:06;102416.25;;;3.65;93.79